createdAt,value
2023-05-18T00:00:55.520Z,6.90
2023-05-18T00:03:22.685Z,6.80
2023-05-18T00:05:49.940Z,6.70
2023-05-18T00:08:16.959Z,6.70
2023-05-18T00:10:43.671Z,6.70
2023-05-18T00:13:10.389Z,6.70
2023-05-18T00:15:37.160Z,6.60
2023-05-18T00:18:04.005Z,6.60
2023-05-18T00:20:31.566Z,6.60
2023-05-18T00:22:58.330Z,6.50
2023-05-18T00:25:25.102Z,6.50
2023-05-18T00:27:52.048Z,6.40
2023-05-18T00:30:19.083Z,6.40
2023-05-18T00:32:45.906Z,6.40
2023-05-18T00:35:12.790Z,6.30
2023-05-18T00:37:39.521Z,6.30
2023-05-18T00:40:07.055Z,6.20
2023-05-18T00:42:33.925Z,6.20
2023-05-18T00:45:01.177Z,6.20
2023-05-18T00:47:28.015Z,6.20
2023-05-18T00:49:54.927Z,6.10
2023-05-18T00:52:21.876Z,6.00
2023-05-18T00:54:49.328Z,5.90
2023-05-18T00:57:16.658Z,5.80
2023-05-18T00:59:43.904Z,5.90
2023-05-18T01:02:11.978Z,5.80
2023-05-18T01:04:41.309Z,5.80
2023-05-18T01:07:08.827Z,5.80
2023-05-18T01:09:35.794Z,5.70
2023-05-18T01:12:25.631Z,5.70
2023-05-18T01:15:04.405Z,5.80
2023-05-18T01:18:00.796Z,5.80
2023-05-18T01:20:34.036Z,5.80
2023-05-18T01:23:35.552Z,5.80
2023-05-18T01:26:16.098Z,5.90
2023-05-18T01:28:46.503Z,5.90
2023-05-18T01:31:16.258Z,5.90
2023-05-18T01:33:44.241Z,5.90
2023-05-18T01:36:11.394Z,5.90
2023-05-18T01:38:39.398Z,5.90
2023-05-18T01:41:14.756Z,5.90
2023-05-18T01:43:51.958Z,5.90
2023-05-18T01:46:24.761Z,5.80
2023-05-18T01:48:58.542Z,5.80
2023-05-18T01:51:31.373Z,5.70
2023-05-18T01:54:03.553Z,5.60
2023-05-18T01:56:31.977Z,5.60
2023-05-18T01:58:59.403Z,5.60
2023-05-18T02:01:26.301Z,5.50
2023-05-18T02:03:53.195Z,5.50
2023-05-18T02:06:21.018Z,5.40
2023-05-18T02:08:48.402Z,5.40
2023-05-18T02:11:15.270Z,5.40
2023-05-18T02:13:42.187Z,5.30
2023-05-18T02:16:09.153Z,5.30
2023-05-18T02:18:36.474Z,5.30
2023-05-18T02:21:05.012Z,5.20
2023-05-18T02:23:32.205Z,5.20
2023-05-18T02:25:59.001Z,5.20
2023-05-18T02:28:25.953Z,5.10
2023-05-18T02:30:52.708Z,5.10
2023-05-18T02:33:19.686Z,5.00
2023-05-18T02:35:46.576Z,4.90
2023-05-18T02:38:13.510Z,4.90
2023-05-18T02:40:40.248Z,4.90
2023-05-18T02:43:07.046Z,4.90
2023-05-18T02:45:34.195Z,4.90
2023-05-18T02:48:01.392Z,4.90
2023-05-18T02:50:28.689Z,4.90
2023-05-18T02:52:56.019Z,4.90
2023-05-18T02:55:22.937Z,4.90
2023-05-18T02:58:02.402Z,4.90
2023-05-18T03:00:49.268Z,4.80
2023-05-18T03:03:16.371Z,4.80
2023-05-18T03:05:44.913Z,4.80
2023-05-18T03:08:11.650Z,4.70
2023-05-18T03:10:38.467Z,4.70
2023-05-18T03:13:05.244Z,4.80
2023-05-18T03:15:32.590Z,4.80
2023-05-18T03:17:59.990Z,4.70
2023-05-18T03:20:28.013Z,4.70
2023-05-18T03:22:54.836Z,4.70
2023-05-18T03:25:22.538Z,4.70
2023-05-18T03:27:49.395Z,4.70
2023-05-18T03:30:16.852Z,4.80
2023-05-18T03:32:43.745Z,4.80
2023-05-18T03:35:11.108Z,4.80
2023-05-18T03:37:37.876Z,4.80
2023-05-18T03:40:13.882Z,4.70
2023-05-18T03:42:42.696Z,4.70
2023-05-18T03:45:10.627Z,4.70
2023-05-18T03:47:38.878Z,4.70
2023-05-18T03:50:07.158Z,4.70
2023-05-18T03:52:34.983Z,4.80
2023-05-18T03:55:01.971Z,4.80
2023-05-18T03:57:29.276Z,4.90
2023-05-18T03:59:56.623Z,4.90
2023-05-18T04:02:24.159Z,5.00
2023-05-18T04:04:53.910Z,5.00
2023-05-18T04:07:22.266Z,5.10
2023-05-18T04:09:49.333Z,5.10
2023-05-18T04:12:16.185Z,5.00
2023-05-18T04:14:43.000Z,5.00
2023-05-18T04:17:10.056Z,5.00
2023-05-18T04:19:37.980Z,5.00
2023-05-18T04:22:06.846Z,5.00
2023-05-18T04:24:34.865Z,5.10
2023-05-18T04:27:03.655Z,5.10
2023-05-18T04:29:31.269Z,5.10
2023-05-18T04:32:01.915Z,5.20
2023-05-18T04:34:29.602Z,5.20
2023-05-18T04:37:00.733Z,5.20
2023-05-18T04:39:27.632Z,5.30
2023-05-18T04:42:00.004Z,5.30
2023-05-18T04:44:29.033Z,5.40
2023-05-18T04:46:59.261Z,5.50
2023-05-18T04:49:27.921Z,5.60
2023-05-18T04:51:55.929Z,5.70
2023-05-18T04:54:28.169Z,5.60
2023-05-18T04:56:54.951Z,5.60
2023-05-18T04:59:26.130Z,5.70
2023-05-18T05:01:55.395Z,5.90
2023-05-18T05:04:23.874Z,6.00
2023-05-18T05:06:50.871Z,6.00
2023-05-18T05:09:18.011Z,6.10
2023-05-18T05:11:44.881Z,6.10
2023-05-18T05:14:12.213Z,6.20
2023-05-18T05:16:39.639Z,6.30
2023-05-18T05:19:06.739Z,6.40
2023-05-18T05:21:33.704Z,6.50
2023-05-18T05:24:04.962Z,6.60
2023-05-18T05:26:32.089Z,6.70
2023-05-18T05:28:58.795Z,6.90
2023-05-18T05:31:25.561Z,7.00
2023-05-18T05:33:52.344Z,7.00
2023-05-18T05:36:19.098Z,7.00
2023-05-18T05:38:45.862Z,7.00
2023-05-18T05:41:12.625Z,7.00
2023-05-18T05:43:39.475Z,7.10
2023-05-18T05:46:06.244Z,7.20
2023-05-18T05:48:33.273Z,7.20
2023-05-18T05:51:00.626Z,7.30
2023-05-18T05:53:29.673Z,7.40
2023-05-18T05:55:56.867Z,7.40
2023-05-18T05:58:23.713Z,7.30
2023-05-18T06:00:54.813Z,7.30
2023-05-18T06:03:21.985Z,7.50
2023-05-18T06:05:49.415Z,7.50
2023-05-18T06:08:18.328Z,7.70
2023-05-18T06:10:47.109Z,7.80
2023-05-18T06:13:13.961Z,7.80
2023-05-18T06:15:48.235Z,7.80
2023-05-18T06:18:15.113Z,7.90
2023-05-18T06:20:41.874Z,7.90
2023-05-18T06:23:08.705Z,8.00
2023-05-18T06:25:47.244Z,8.00
2023-05-18T06:28:28.551Z,8.20
2023-05-18T06:31:05.682Z,8.20
2023-05-18T06:33:42.372Z,8.30
2023-05-18T06:36:09.407Z,8.40
2023-05-18T06:38:36.165Z,8.40
2023-05-18T06:41:02.915Z,8.50
2023-05-18T06:43:29.731Z,8.60
2023-05-18T06:46:03.591Z,8.70
2023-05-18T06:48:36.170Z,8.70
2023-05-18T06:51:03.083Z,8.70
2023-05-18T06:53:31.767Z,8.80
2023-05-18T06:55:58.512Z,8.80
2023-05-18T06:58:25.376Z,9.00
2023-05-18T07:00:54.145Z,9.00
2023-05-18T07:03:20.929Z,9.20
2023-05-18T07:05:47.668Z,9.20
2023-05-18T07:08:14.516Z,9.20
2023-05-18T07:10:41.258Z,9.30
2023-05-18T07:13:07.991Z,9.50
2023-05-18T07:15:34.953Z,9.60
2023-05-18T07:18:01.943Z,9.70
2023-05-18T07:20:28.694Z,9.70
2023-05-18T07:22:55.922Z,9.80
2023-05-18T07:25:23.255Z,9.80
2023-05-18T07:27:52.108Z,10.00
2023-05-18T07:30:21.417Z,10.20
2023-05-18T07:32:48.483Z,10.30
2023-05-18T07:35:16.881Z,10.30
2023-05-18T07:37:43.657Z,10.30
2023-05-18T07:40:11.347Z,10.20
2023-05-18T07:42:39.516Z,10.10
2023-05-18T07:45:07.217Z,10.10
2023-05-18T07:47:34.124Z,10.30
2023-05-18T07:50:00.932Z,10.40
2023-05-18T07:52:27.645Z,10.50
2023-05-18T07:54:56.378Z,10.70
2023-05-18T07:57:23.608Z,10.80
2023-05-18T07:59:50.681Z,10.80
2023-05-18T08:02:19.680Z,11.00
2023-05-18T08:04:47.249Z,11.10
2023-05-18T08:07:14.375Z,11.20
2023-05-18T08:09:41.310Z,11.30
2023-05-18T08:12:08.324Z,11.30
2023-05-18T08:14:35.039Z,11.30
2023-05-18T08:17:04.697Z,11.20
2023-05-18T08:19:31.632Z,11.30
2023-05-18T08:21:58.423Z,11.30
2023-05-18T08:24:25.162Z,11.40
2023-05-18T08:26:52.537Z,11.40
2023-05-18T08:29:19.339Z,11.30
2023-05-18T08:31:48.460Z,11.40
2023-05-18T08:34:16.697Z,11.60
2023-05-18T08:36:45.607Z,11.90
2023-05-18T08:39:12.859Z,12.10
2023-05-18T08:41:53.915Z,12.30
2023-05-18T08:44:35.030Z,12.20
2023-05-18T08:47:03.663Z,12.10
2023-05-18T08:49:32.126Z,12.30
2023-05-18T08:52:04.014Z,12.30
2023-05-18T08:54:31.536Z,12.30
2023-05-18T08:56:59.176Z,12.20
2023-05-18T08:59:31.066Z,11.90
2023-05-18T09:01:58.879Z,12.10
2023-05-18T09:04:27.200Z,12.00
2023-05-18T09:06:56.498Z,11.90
2023-05-18T09:09:25.311Z,11.90
2023-05-18T09:11:52.259Z,11.90
2023-05-18T09:14:19.149Z,12.10
2023-05-18T09:16:45.946Z,12.00
2023-05-18T09:19:12.783Z,11.90
2023-05-18T09:21:39.520Z,11.70
2023-05-18T09:24:06.563Z,11.70
2023-05-18T09:26:33.627Z,11.90
2023-05-18T09:29:00.506Z,12.20
2023-05-18T09:31:30.269Z,12.40
2023-05-18T09:33:59.340Z,12.50
2023-05-18T09:36:26.690Z,12.70
2023-05-18T09:38:53.745Z,12.70
2023-05-18T09:41:20.477Z,12.90
2023-05-18T09:43:54.243Z,13.10
2023-05-18T09:46:22.037Z,13.10
2023-05-18T09:48:55.796Z,13.20
2023-05-18T09:51:25.550Z,13.40
2023-05-18T09:53:57.200Z,13.30
2023-05-18T09:56:25.630Z,13.10
2023-05-18T09:58:55.789Z,13.00
2023-05-18T10:01:23.179Z,13.10
2023-05-18T10:03:50.292Z,13.40
2023-05-18T10:06:21.345Z,13.50
2023-05-18T10:08:48.622Z,13.80
2023-05-18T10:11:19.612Z,13.90
2023-05-18T10:13:46.920Z,14.00
2023-05-18T10:16:15.829Z,14.00
2023-05-18T10:18:43.380Z,13.90
2023-05-18T10:21:12.668Z,13.80
2023-05-18T10:23:40.857Z,14.10
2023-05-18T10:26:09.849Z,14.10
2023-05-18T10:28:47.331Z,14.00
2023-05-18T10:31:16.421Z,13.90
2023-05-18T10:33:44.265Z,13.70
2023-05-18T10:36:11.491Z,13.30
2023-05-18T10:38:43.483Z,13.20
2023-05-18T10:41:12.193Z,13.10
2023-05-18T10:43:41.562Z,13.00
2023-05-18T10:46:09.304Z,13.00
2023-05-18T10:48:40.059Z,13.10
2023-05-18T10:51:07.977Z,13.00
2023-05-18T10:53:36.373Z,12.90
2023-05-18T10:56:03.384Z,12.90
2023-05-18T10:58:31.866Z,12.90
2023-05-18T11:01:01.201Z,12.90
2023-05-18T11:03:28.790Z,12.80
2023-05-18T11:06:23.207Z,12.50
2023-05-18T11:08:52.076Z,12.40
2023-05-18T11:11:25.810Z,12.30
2023-05-18T11:13:52.622Z,12.10
2023-05-18T11:16:20.596Z,11.90
2023-05-18T11:18:52.402Z,11.90
2023-05-18T11:21:25.395Z,11.70
2023-05-18T11:24:19.967Z,11.80
2023-05-18T11:26:48.648Z,11.90
2023-05-18T11:29:34.159Z,12.00
2023-05-18T11:32:01.682Z,12.00
2023-05-18T11:34:39.154Z,12.00
2023-05-18T11:37:10.213Z,12.00
2023-05-18T11:39:44.886Z,12.00
2023-05-18T11:42:19.268Z,12.10
2023-05-18T11:44:57.913Z,12.40
2023-05-18T11:47:31.430Z,12.60
2023-05-18T11:49:58.998Z,12.70
2023-05-18T11:52:25.976Z,12.80
2023-05-18T11:55:00.415Z,12.80
2023-05-18T11:57:40.468Z,12.80
2023-05-18T12:00:11.981Z,12.90
2023-05-18T12:02:47.197Z,13.00
2023-05-18T12:05:15.170Z,13.20
2023-05-18T12:07:42.388Z,13.20
2023-05-18T12:10:14.566Z,13.10
2023-05-18T12:12:41.576Z,13.00
2023-05-18T12:15:10.292Z,13.00
2023-05-18T12:17:45.069Z,13.10
2023-05-18T12:20:13.014Z,13.10
2023-05-18T12:22:41.187Z,13.30
2023-05-18T12:25:08.835Z,13.40
2023-05-18T12:27:46.026Z,13.40
2023-05-18T12:30:34.688Z,13.40
2023-05-18T12:33:03.146Z,13.30
2023-05-18T12:35:31.367Z,13.20
2023-05-18T12:38:02.426Z,13.10
2023-05-18T12:40:44.795Z,13.00
2023-05-18T12:43:12.927Z,13.00
2023-05-18T12:45:40.905Z,12.80
2023-05-18T12:48:09.552Z,12.70
2023-05-18T12:50:38.686Z,12.60
2023-05-18T12:53:05.581Z,12.60
2023-05-18T12:55:33.172Z,12.70
2023-05-18T12:58:12.820Z,12.80
2023-05-18T13:00:42.503Z,12.80
2023-05-18T13:03:14.465Z,12.60
2023-05-18T13:05:44.658Z,12.60
2023-05-18T13:08:17.818Z,12.50
2023-05-18T13:10:45.198Z,12.30
2023-05-18T13:13:15.701Z,12.30
2023-05-18T13:15:43.864Z,12.40
2023-05-18T13:18:12.037Z,12.50
2023-05-18T13:20:51.407Z,12.50
2023-05-18T13:23:23.944Z,12.40
2023-05-18T13:25:51.104Z,12.40
2023-05-18T13:28:21.009Z,12.50
2023-05-18T13:30:49.362Z,12.40
2023-05-18T13:33:19.295Z,12.50
2023-05-18T13:35:48.522Z,12.60
2023-05-18T13:38:15.871Z,12.80
2023-05-18T13:40:42.974Z,12.60
2023-05-18T13:43:12.046Z,12.60
2023-05-18T13:45:40.955Z,12.60
2023-05-18T13:48:10.131Z,12.40
2023-05-18T13:50:37.708Z,12.30
2023-05-18T13:53:04.639Z,12.30
2023-05-18T13:55:31.828Z,12.20
2023-05-18T13:57:58.826Z,12.30
2023-05-18T14:00:26.227Z,12.20
2023-05-18T14:02:56.481Z,12.20
2023-05-18T14:05:23.635Z,12.40
2023-05-18T14:07:52.426Z,12.50
2023-05-18T14:10:19.461Z,12.40
2023-05-18T14:12:46.289Z,12.30
2023-05-18T14:15:13.963Z,12.20
2023-05-18T14:17:42.020Z,12.20
2023-05-18T14:20:09.655Z,12.20
2023-05-18T14:22:36.520Z,12.30
2023-05-18T14:25:03.639Z,12.40
2023-05-18T14:27:30.416Z,12.40
2023-05-18T14:29:57.284Z,12.40
2023-05-18T14:32:24.101Z,12.50
2023-05-18T14:34:52.098Z,12.70
2023-05-18T14:37:19.204Z,12.70
2023-05-18T14:39:46.162Z,12.70
2023-05-18T14:42:13.273Z,12.70
2023-05-18T14:44:40.013Z,12.60
2023-05-18T14:47:07.043Z,12.70
2023-05-18T14:49:33.936Z,12.80
2023-05-18T14:52:00.864Z,12.90
2023-05-18T14:54:27.621Z,13.00
2023-05-18T14:56:54.692Z,12.90
2023-05-18T14:59:21.903Z,12.70
2023-05-18T15:01:48.751Z,12.50
2023-05-18T15:04:15.572Z,12.40
2023-05-18T15:06:42.433Z,12.40
2023-05-18T15:09:09.972Z,12.40
2023-05-18T15:11:36.752Z,12.50
2023-05-18T15:14:03.510Z,12.50
2023-05-18T15:16:30.315Z,12.50
2023-05-18T15:18:57.253Z,12.40
2023-05-18T15:21:24.041Z,12.40
2023-05-18T15:23:50.910Z,12.30
2023-05-18T15:26:17.695Z,12.20
2023-05-18T15:28:45.048Z,12.20
2023-05-18T15:31:12.022Z,12.10
2023-05-18T15:33:42.310Z,12.00
2023-05-18T15:36:09.796Z,11.90
2023-05-18T15:38:36.586Z,11.80
2023-05-18T15:41:03.526Z,11.80
2023-05-18T15:43:30.675Z,11.80
2023-05-18T15:45:58.219Z,11.80
2023-05-18T15:48:25.058Z,11.70
2023-05-18T15:50:51.902Z,11.70
2023-05-18T15:53:18.723Z,11.70
2023-05-18T15:55:45.664Z,11.70
2023-05-18T15:58:16.094Z,11.70
2023-05-18T16:00:42.942Z,11.60
2023-05-18T16:03:09.753Z,11.50
2023-05-18T16:05:36.730Z,11.50
2023-05-18T16:08:03.530Z,11.40
2023-05-18T16:10:30.657Z,11.40
2023-05-18T16:13:04.216Z,11.30
2023-05-18T16:15:32.420Z,11.20
2023-05-18T16:17:59.186Z,11.10
2023-05-18T16:20:26.051Z,11.10
2023-05-18T16:22:52.859Z,11.00
2023-05-18T16:25:19.603Z,11.00
2023-05-18T16:27:46.362Z,11.10
2023-05-18T16:30:13.335Z,11.00
2023-05-18T16:32:40.082Z,11.00
2023-05-18T16:35:07.088Z,11.00
2023-05-18T16:37:34.705Z,10.90
2023-05-18T16:40:01.503Z,11.00
2023-05-18T16:42:28.337Z,10.90
2023-05-18T16:44:55.594Z,10.90
2023-05-18T16:47:22.911Z,10.90
2023-05-18T16:49:49.672Z,10.90
2023-05-18T16:52:18.301Z,10.90
2023-05-18T16:54:45.612Z,10.80
2023-05-18T16:57:13.200Z,10.80
2023-05-18T16:59:40.549Z,10.80
2023-05-18T17:02:12.991Z,10.70
2023-05-18T17:04:45.998Z,10.70
2023-05-18T17:07:13.240Z,10.70
2023-05-18T17:09:41.696Z,10.60
2023-05-18T17:12:12.529Z,10.60
2023-05-18T17:14:39.765Z,10.60
2023-05-18T17:17:07.561Z,10.60
2023-05-18T17:19:38.838Z,10.70
2023-05-18T17:22:06.229Z,10.60
2023-05-18T17:24:32.952Z,10.60
2023-05-18T17:26:59.705Z,10.50
2023-05-18T17:29:27.138Z,10.50
2023-05-18T17:31:54.088Z,10.50
2023-05-18T17:34:21.074Z,10.50
2023-05-18T17:36:47.908Z,10.50
2023-05-18T17:39:18.028Z,10.50
2023-05-18T17:41:45.016Z,10.50
2023-05-18T17:44:13.926Z,10.60
2023-05-18T17:46:41.603Z,10.60
2023-05-18T17:49:08.734Z,10.50
2023-05-18T17:51:35.505Z,10.50
2023-05-18T17:54:02.249Z,10.40
2023-05-18T17:56:30.490Z,10.40
2023-05-18T17:58:58.955Z,10.40
2023-05-18T18:01:27.018Z,10.40
2023-05-18T18:03:54.206Z,10.40
2023-05-18T18:06:22.775Z,10.30
2023-05-18T18:08:50.793Z,10.30
2023-05-18T18:11:17.917Z,10.30
2023-05-18T18:13:44.670Z,10.20
2023-05-18T18:16:11.691Z,10.20
2023-05-18T18:18:55.519Z,10.20
2023-05-18T18:21:22.372Z,10.20
2023-05-18T18:23:49.190Z,10.10
2023-05-18T18:26:16.958Z,10.10
2023-05-18T18:28:43.813Z,10.10
2023-05-18T18:31:10.655Z,10.00
2023-05-18T18:33:38.440Z,10.00
2023-05-18T18:36:07.291Z,9.90
2023-05-18T18:38:34.124Z,9.90
2023-05-18T18:41:04.263Z,10.00
2023-05-18T18:43:31.412Z,10.00
2023-05-18T18:45:58.583Z,9.90
2023-05-18T18:48:26.138Z,9.90
2023-05-18T18:50:53.398Z,9.90
2023-05-18T18:53:20.186Z,9.80
2023-05-18T18:55:47.190Z,9.80
2023-05-18T18:58:13.993Z,9.80
2023-05-18T19:00:40.818Z,9.80
2023-05-18T19:03:09.700Z,9.80
2023-05-18T19:05:37.348Z,9.80
2023-05-18T19:08:04.243Z,9.80
2023-05-18T19:10:32.824Z,9.80
2023-05-18T19:13:04.860Z,9.70
2023-05-18T19:15:33.573Z,9.70
2023-05-18T19:18:00.924Z,9.70
2023-05-18T19:20:27.830Z,9.70
2023-05-18T19:22:54.643Z,9.70
2023-05-18T19:25:24.530Z,9.70
2023-05-18T19:27:52.222Z,9.70
2023-05-18T19:30:21.518Z,9.60
2023-05-18T19:32:52.991Z,9.60
2023-05-18T19:35:20.944Z,9.50
2023-05-18T19:37:48.004Z,9.60
2023-05-18T19:40:16.436Z,9.60
2023-05-18T19:42:43.360Z,9.60
2023-05-18T19:45:10.208Z,9.60
2023-05-18T19:47:37.072Z,9.60
2023-05-18T19:50:04.481Z,9.60
2023-05-18T19:52:32.127Z,9.60
2023-05-18T19:54:58.838Z,9.50
2023-05-18T19:57:26.438Z,9.50
2023-05-18T19:59:53.486Z,9.50
2023-05-18T20:02:20.241Z,9.40
2023-05-18T20:04:48.314Z,9.40
2023-05-18T20:07:15.173Z,9.40
2023-05-18T20:09:41.890Z,9.40
2023-05-18T20:12:08.833Z,9.40
2023-05-18T20:14:36.653Z,9.40
2023-05-18T20:17:04.321Z,9.30
2023-05-18T20:19:32.866Z,9.40
2023-05-18T20:21:59.850Z,9.30
2023-05-18T20:24:26.649Z,9.30
2023-05-18T20:26:53.570Z,9.30
2023-05-18T20:29:21.355Z,9.40
2023-05-18T20:31:48.380Z,9.30
2023-05-18T20:34:15.575Z,9.30
2023-05-18T20:36:42.298Z,9.30
2023-05-18T20:39:09.149Z,9.30
2023-05-18T20:41:39.952Z,9.30
2023-05-18T20:44:07.385Z,9.30
2023-05-18T20:46:34.313Z,9.30
2023-05-18T20:49:01.141Z,9.30
2023-05-18T20:51:28.071Z,9.30
2023-05-18T20:53:54.910Z,9.30
2023-05-18T20:56:21.923Z,9.20
2023-05-18T20:58:50.049Z,9.20
2023-05-18T21:01:17.027Z,9.20
2023-05-18T21:03:45.164Z,9.20
2023-05-18T21:06:15.057Z,9.20
2023-05-18T21:08:42.429Z,9.10
2023-05-18T21:11:09.654Z,9.10
2023-05-18T21:13:37.004Z,9.10
2023-05-18T21:16:06.666Z,9.00
2023-05-18T21:18:34.407Z,9.00
2023-05-18T21:21:02.270Z,9.00
2023-05-18T21:23:29.223Z,9.00
2023-05-18T21:25:57.386Z,9.10
2023-05-18T21:28:24.991Z,9.10
2023-05-18T21:30:52.696Z,9.10
2023-05-18T21:33:19.716Z,9.20
2023-05-18T21:35:46.667Z,9.20
2023-05-18T21:38:13.424Z,9.20
2023-05-18T21:40:43.579Z,9.10
2023-05-18T21:43:10.823Z,9.10
2023-05-18T21:45:37.964Z,9.10
2023-05-18T21:48:05.224Z,9.10
2023-05-18T21:50:34.644Z,9.10
2023-05-18T21:53:03.192Z,9.10
2023-05-18T21:55:33.305Z,9.10
2023-05-18T21:58:00.232Z,9.00
2023-05-18T22:00:27.980Z,9.00
2023-05-18T22:02:54.761Z,9.00
2023-05-18T22:05:21.646Z,9.00
2023-05-18T22:07:48.890Z,9.00
2023-05-18T22:10:17.697Z,9.00
2023-05-18T22:12:44.501Z,9.10
2023-05-18T22:15:11.551Z,9.10
2023-05-18T22:17:39.047Z,9.10
2023-05-18T22:20:09.744Z,9.00
2023-05-18T22:22:36.696Z,9.00
2023-05-18T22:25:03.560Z,9.00
2023-05-18T22:27:30.470Z,9.00
2023-05-18T22:29:57.453Z,9.00
2023-05-18T22:32:24.686Z,9.00
2023-05-18T22:34:51.890Z,9.10
2023-05-18T22:37:18.646Z,9.10
2023-05-18T22:39:45.505Z,9.10
2023-05-18T22:42:12.300Z,9.10
2023-05-18T22:44:39.048Z,9.10
2023-05-18T22:47:06.126Z,9.10
2023-05-18T22:49:35.624Z,9.10
2023-05-18T22:52:04.230Z,9.20
2023-05-18T22:54:31.442Z,9.20
2023-05-18T22:56:59.462Z,9.80
2023-05-18T22:59:26.712Z,9.20
2023-05-18T23:01:54.592Z,9.10
2023-05-18T23:04:21.805Z,9.10
2023-05-18T23:06:49.284Z,9.00
2023-05-18T23:09:17.001Z,9.00
2023-05-18T23:11:48.270Z,9.00
2023-05-18T23:14:15.191Z,8.90
2023-05-18T23:16:42.958Z,8.90
2023-05-18T23:19:12.214Z,8.90
2023-05-18T23:21:42.368Z,8.90
2023-05-18T23:24:11.678Z,8.90
2023-05-18T23:26:42.118Z,8.90
2023-05-18T23:29:09.246Z,9.00
2023-05-18T23:31:36.312Z,8.90
2023-05-18T23:34:03.558Z,8.90
2023-05-18T23:36:34.852Z,9.00
2023-05-18T23:39:01.884Z,8.90
2023-05-18T23:41:30.412Z,9.00
2023-05-18T23:43:57.724Z,9.00
2023-05-18T23:46:25.055Z,9.00
2023-05-18T23:48:52.458Z,9.00
2023-05-18T23:51:20.708Z,9.00
2023-05-18T23:53:50.599Z,9.00
2023-05-18T23:56:17.735Z,9.00
2023-05-18T23:58:46.479Z,8.90
